This is the latest recevied weather packets stored in our database for station/object TG8AKV-17. If no packets are shown the sender has not sent any weather packets the latest 10 day(s).
| Time | Temp. | Humidity | Pressure | Rain* | Wind** | Luminosity | Snow |
|---|---|---|---|---|---|---|---|
| 1777426807 | 15° C | 95% | 1017 hPa | 0 mm | - | - | - |
| 1777426207 | 15° C | 95% | 1016 hPa | 0 mm | - | - | - |
| 1777425606 | 15° C | 95% | 1016 hPa | 0 mm | - | - | - |
| 1777425006 | 15° C | 95% | 1016 hPa | 0 mm | - | - | - |
| 1777424405 | 15° C | 95% | 1016 hPa | 0 mm | - | - | - |
| 1777423804 | 15.56° C | 95% | 1016 hPa | 0 mm | - | - | - |
| 1777423203 | 15.56° C | 95% | 1016 hPa | 0 mm | - | - | - |
| 1777422603 | 15.56° C | 95% | 1015 hPa | 0 mm | - | - | - |
| 1777422003 | 15.56° C | 95% | 1015 hPa | 0 mm | - | - | - |
| 1777421402 | 15.56° C | 94% | 1015 hPa | 0 mm | - | - | - |
| 1777420801 | 15.56° C | 94% | 1015 hPa | 0 mm | - | - | - |
| 1777420201 | 15.56° C | 94% | 1015 hPa | 0 mm | - | - | - |
| 1777419600 | 15.56° C | 94% | 1015 hPa | 0 mm | - | - | - |
| 1777418999 | 15.56° C | 93% | 1015 hPa | 0 mm | - | - | - |
| 1777418399 | 15.56° C | 93% | 1015 hPa | 0 mm | - | - | - |
| 1777417798 | 15.56° C | 93% | 1015 hPa | 0 mm | - | - | - |
| 1777417198 | 16.11° C | 92% | 1015 hPa | 0 mm | - | - | - |
| 1777416597 | 16.67° C | 91% | 1015 hPa | 0 mm | - | - | - |
| 1777415996 | 17.22° C | 89% | 1015 hPa | 0 mm | - | - | - |
| 1777415396 | 18.33° C | 85% | 1014 hPa | 0 mm | - | - | - |
| 1777414795 | 19.44° C | 76% | 1014 hPa | 0 mm | - | - | - |
| 1777414195 | 18.89° C | 80% | 1014 hPa | 0 mm | - | - | - |
| 1777413594 | 16.67° C | 92% | 1014 hPa | 0 mm | - | - | - |
| 1777412993 | 16.67° C | 92% | 1014 hPa | 0 mm | - | - | - |
| 1777412393 | 16.67° C | 92% | 1014 hPa | 0 mm | - | - | - |
* Rain latest hour (hover to see other rain measurements)
** Current wind speed in m/s (hover to see current wind gust speed)